Time;durP1;ratioP1;P1;durP2;ratioP2;P2;SDS_P1;SDS_P2;PMS_P1;PMS_P2;Temp;Humidity;BMP_temperature;BMP_pressure;BME280_temperature;BME280_humidity;BME280_pressure;Samples;Min_cycle;Max_cycle;Signal;HPM_P1;HPM_P2
2023/06/25 00:00:35;;;;;;;4.05;2.78;;;;;;;22.86;65.54;99478.59;5097576;28;20052;-86
2023/06/25 00:03:01;;;;;;;5.32;2.42;;;;;;;22.89;64.74;99480.19;5091896;28;20117;-86
2023/06/25 00:05:26;;;;;;;3.97;2.60;;;;;;;22.89;65.48;99509.78;5094322;28;20032;-86
2023/06/25 00:07:52;;;;;;;3.72;2.20;;;;;;;22.41;65.97;99453.06;5091656;28;20043;-85
2023/06/25 00:10:18;;;;;;;3.85;2.08;;;;;;;22.52;65.66;99472.88;5095179;28;20505;-85
2023/06/25 00:12:43;;;;;;;3.80;2.78;;;;;;;22.43;66.29;99480.66;5076053;28;20405;-87
2023/06/25 00:15:10;;;;;;;11.05;2.33;;;;;;;22.61;65.71;99497.38;5078278;28;20036;-85
2023/06/25 00:17:37;;;;;;;3.03;1.33;;;;;;;22.71;64.93;99493.97;5087519;28;20032;-84
2023/06/25 00:20:03;;;;;;;2.42;1.55;;;;;;;22.61;64.00;99465.97;5071160;28;20146;-88
2023/06/25 00:22:28;;;;;;;2.67;1.83;;;;;;;22.26;64.62;99450.41;5092169;28;20096;-87
2023/06/25 00:24:54;;;;;;;3.80;1.70;;;;;;;22.33;65.51;99470.53;5091756;28;20107;-86
2023/06/25 00:27:19;;;;;;;4.53;1.92;;;;;;;22.13;64.71;99458.41;5087611;28;20043;-87
2023/06/25 00:29:45;;;;;;;5.38;2.80;;;;;;;22.17;64.67;99465.31;5070508;28;20043;-85
2023/06/25 00:32:15;;;;;;;2.78;1.65;;;;;;;22.04;65.01;99471.59;5087370;28;20122;-88
2023/06/25 00:34:41;;;;;;;3.78;2.45;;;;;;;22.36;65.24;99512.47;5092641;28;20024;-84
2023/06/25 00:37:16;;;;;;;2.88;1.60;;;;;;;22.15;65.89;99479.81;5075784;28;20420;-86
2023/06/25 00:39:43;;;;;;;3.53;2.10;;;;;;;22.18;65.44;99482.28;5087343;28;20115;-86
2023/06/25 00:42:09;;;;;;;4.40;2.28;;;;;;;22.09;63.85;99454.22;5090233;28;20020;-85
2023/06/25 00:44:40;;;;;;;3.75;2.25;;;;;;;22.21;64.18;99481.22;5093046;28;20112;-85
2023/06/25 00:47:12;;;;;;;6.28;3.40;;;;;;;22.15;64.62;99486.06;5086411;28;20039;-84
2023/06/25 00:49:45;;;;;;;2.80;2.10;;;;;;;22.17;65.19;99515.50;5089849;28;20115;-85
2023/06/25 00:52:12;;;;;;;3.45;2.20;;;;;;;22.30;64.90;99520.91;5088773;28;20169;-85
2023/06/25 00:54:38;;;;;;;4.28;1.90;;;;;;;22.08;64.51;99490.09;5090645;28;20077;-87
2023/06/25 00:57:06;;;;;;;5.00;1.77;;;;;;;21.86;64.14;99449.50;5090573;28;20034;-86
2023/06/25 00:59:32;;;;;;;3.25;1.65;;;;;;;22.09;64.47;99507.94;5091547;28;20097;-85
2023/06/25 01:02:06;;;;;;;1.83;1.38;;;;;;;21.99;64.95;99509.50;5092694;28;20111;-86
2023/06/25 01:04:40;;;;;;;4.55;2.00;;;;;;;21.63;65.32;99452.72;5074331;28;20507;-85
2023/06/25 01:07:16;;;;;;;5.97;3.15;;;;;;;21.93;65.41;99481.22;5092683;28;20047;-85
2023/06/25 01:09:49;;;;;;;1.65;1.33;;;;;;;21.68;65.01;99468.53;5094655;28;20639;-85
2023/06/25 01:12:15;;;;;;;4.03;2.35;;;;;;;21.64;65.40;99467.00;5092971;28;20110;-85
2023/06/25 01:14:40;;;;;;;3.72;1.70;;;;;;;21.76;64.98;99474.25;5085685;28;20150;-85
2023/06/25 01:17:07;;;;;;;7.35;2.05;;;;;;;21.66;65.13;99448.13;5095377;28;20051;-85
2023/06/25 01:19:33;;;;;;;3.70;1.73;;;;;;;21.81;65.12;99487.38;5089595;28;20505;-86
2023/06/25 01:22:00;;;;;;;3.00;2.08;;;;;;;21.59;64.92;99436.94;5089581;28;20150;-85
2023/06/25 01:24:27;;;;;;;1.52;1.27;;;;;;;21.72;64.83;99480.81;5090219;28;20080;-84
2023/06/25 01:26:56;;;;;;;3.45;2.45;;;;;;;21.51;65.68;99445.47;5094008;28;20032;-86
2023/06/25 01:29:22;;;;;;;3.30;2.03;;;;;;;21.59;65.50;99466.44;5090096;28;20038;-85
2023/06/25 01:31:51;;;;;;;4.80;3.38;;;;;;;21.54;65.78;99476.63;5090383;28;20031;-84
2023/06/25 01:34:21;;;;;;;4.72;2.20;;;;;;;21.57;66.37;99471.06;5099876;28;20097;-85
2023/06/25 01:36:49;;;;;;;4.90;2.72;;;;;;;21.59;66.85;99488.78;5101949;28;20059;-84
2023/06/25 01:39:19;;;;;;;2.20;1.42;;;;;;;21.52;67.53;99475.84;5100734;28;20032;-84
2023/06/25 01:41:46;;;;;;;3.97;2.40;;;;;;;21.66;68.07;99529.53;5071880;28;20064;-85
2023/06/25 01:44:18;;;;;;;4.22;2.55;;;;;;;21.53;68.81;99509.78;5089397;28;20047;-85
2023/06/25 01:46:44;;;;;;;3.00;2.28;;;;;;;21.47;68.44;99502.94;5093815;28;20033;-85
2023/06/25 01:49:10;;;;;;;4.30;2.35;;;;;;;21.44;68.52;99514.75;5098273;28;20067;-84
2023/06/25 01:51:37;;;;;;;2.80;1.50;;;;;;;21.35;69.34;99519.81;5100344;28;20073;-86
2023/06/25 01:54:03;;;;;;;4.47;1.85;;;;;;;21.43;69.29;99517.53;5114028;28;20038;-85
2023/06/25 01:56:28;;;;;;;3.17;2.33;;;;;;;21.29;68.87;99502.28;5113363;28;20416;-85
2023/06/25 01:58:54;;;;;;;3.95;1.95;;;;;;;21.03;68.40;99432.38;5105280;28;20028;-85
2023/06/25 02:01:22;;;;;;;3.63;2.25;;;;;;;21.17;68.46;99462.81;5092884;28;20442;-85
2023/06/25 02:03:48;;;;;;;3.35;2.08;;;;;;;21.21;67.78;99459.84;5092985;28;20028;-85
2023/06/25 02:06:14;;;;;;;5.22;2.28;;;;;;;21.24;65.76;99464.16;5100069;28;20060;-87
2023/06/25 02:08:40;;;;;;;2.65;2.13;;;;;;;21.28;66.81;99484.47;5094046;28;20093;-84
2023/06/25 02:11:08;;;;;;;5.05;2.60;;;;;;;21.38;67.79;99487.41;5105573;28;20027;-85
2023/06/25 02:13:35;;;;;;;4.40;2.55;;;;;;;21.08;67.75;99416.84;5112696;28;20039;-84
2023/06/25 02:16:01;;;;;;;4.05;2.17;;;;;;;21.34;66.39;99473.34;5112620;28;20028;-85
2023/06/25 02:18:31;;;;;;;2.70;2.13;;;;;;;21.28;67.35;99458.50;5112485;28;20039;-85
2023/06/25 02:20:56;;;;;;;1.98;1.67;;;;;;;21.09;68.39;99468.66;5105215;28;20497;-85
2023/06/25 02:23:22;;;;;;;4.00;2.85;;;;;;;21.08;67.94;99450.84;5092844;28;20067;-85
2023/06/25 02:25:49;;;;;;;3.70;2.50;;;;;;;21.09;68.22;99464.16;5092311;28;20504;-84
2023/06/25 02:28:15;;;;;;;3.95;1.90;;;;;;;21.20;68.17;99462.63;5092107;28;20111;-86
2023/06/25 02:30:40;;;;;;;4.60;2.22;;;;;;;21.15;68.26;99487.06;5092404;28;20481;-85
2023/06/25 02:33:06;;;;;;;3.45;2.42;;;;;;;21.06;68.03;99458.13;5111717;28;20047;-84
2023/06/25 02:35:31;;;;;;;2.67;1.85;;;;;;;20.90;69.05;99472.47;5111034;28;20050;-85
2023/06/25 02:37:57;;;;;;;5.78;2.33;;;;;;;20.80;69.35;99449.03;5112940;28;20164;-85
2023/06/25 02:40:23;;;;;;;5.85;3.25;;;;;;;21.06;69.39;99487.63;5096761;28;20082;-84
2023/06/25 02:42:49;;;;;;;4.22;2.25;;;;;;;21.18;68.51;99500.28;5099931;28;20051;-85
2023/06/25 02:45:16;;;;;;;4.55;1.90;;;;;;;21.39;68.04;99505.25;5110503;28;20031;-84
2023/06/25 02:47:41;;;;;;;2.50;1.70;;;;;;;21.06;67.79;99444.72;5112667;28;20078;-84
2023/06/25 02:50:09;;;;;;;3.25;1.70;;;;;;;21.25;68.53;99495.38;5112187;28;20051;-84
2023/06/25 02:52:34;;;;;;;3.88;1.95;;;;;;;20.83;69.14;99454.19;5075898;28;20552;-84
2023/06/25 02:55:01;;;;;;;8.68;2.38;;;;;;;20.89;68.94;99449.31;5075079;28;20059;-86
2023/06/25 02:57:29;;;;;;;3.30;2.13;;;;;;;21.43;68.61;99537.16;5110981;28;20500;-86
2023/06/25 02:59:59;;;;;;;2.95;2.20;;;;;;;21.18;67.98;99470.78;5091495;28;20055;-88
2023/06/25 03:02:25;;;;;;;4.05;2.50;;;;;;;21.22;69.31;99522.41;5091745;28;20032;-87
2023/06/25 03:04:51;;;;;;;3.22;1.83;;;;;;;21.00;69.55;99475.44;5091273;28;20032;-87
2023/06/25 03:07:17;;;;;;;3.67;2.60;;;;;;;20.86;69.66;99454.00;5099821;28;20038;-87
2023/06/25 03:09:43;;;;;;;2.83;1.92;;;;;;;21.11;69.49;99474.78;5112207;28;20121;-88
2023/06/25 03:12:09;;;;;;;9.30;3.20;;;;;;;20.83;69.63;99438.09;5092754;28;20073;-85
2023/06/25 03:14:35;;;;;;;5.63;3.00;;;;;;;20.95;69.94;99450.75;5110647;28;20023;-83
2023/06/25 03:17:04;;;;;;;3.33;1.85;;;;;;;21.30;69.88;99482.53;5092256;28;20028;-83
2023/06/25 03:19:30;;;;;;;5.03;2.58;;;;;;;21.43;70.02;99485.34;5072975;28;20040;-85
2023/06/25 03:21:56;;;;;;;4.18;2.08;;;;;;;21.39;69.76;99490.00;5091436;28;20035;-84
2023/06/25 03:24:22;;;;;;;3.60;2.08;;;;;;;21.32;69.93;99467.22;5091020;28;20024;-83
2023/06/25 03:26:47;;;;;;;3.78;1.98;;;;;;;21.52;69.73;99500.00;5090822;28;20034;-84
2023/06/25 03:29:16;;;;;;;7.20;2.25;;;;;;;21.64;68.92;99500.09;5092070;28;20036;-82
2023/06/25 03:31:41;;;;;;;3.35;2.20;;;;;;;21.22;69.11;99424.00;5090732;28;20039;-82
2023/06/25 03:34:07;;;;;;;2.13;1.88;;;;;;;21.38;69.44;99472.22;5095355;28;20024;-83
2023/06/25 03:36:33;;;;;;;5.68;2.72;;;;;;;21.61;68.93;99497.59;5101628;28;20031;-85
2023/06/25 03:38:58;;;;;;;4.25;2.35;;;;;;;21.91;68.73;99554.78;5091706;28;20505;-84
2023/06/25 03:41:25;;;;;;;1.45;1.30;;;;;;;21.61;68.58;99484.19;5072728;28;20513;-84
2023/06/25 03:43:51;;;;;;;4.07;2.13;;;;;;;21.82;68.42;99491.81;5090159;28;20052;-84
2023/06/25 03:46:17;;;;;;;2.88;1.75;;;;;;;21.87;68.68;99478.94;5090941;28;20497;-84
2023/06/25 03:48:42;;;;;;;3.78;2.40;;;;;;;21.78;68.79;99468.78;5091417;28;20119;-85
2023/06/25 03:51:09;;;;;;;4.78;2.35;;;;;;;21.75;67.26;99450.19;5090900;28;20122;-84
2023/06/25 03:53:34;;;;;;;4.90;2.13;;;;;;;21.72;68.05;99450.41;5107939;28;20051;-84
2023/06/25 03:56:00;;;;;;;3.13;2.33;;;;;;;22.18;68.15;99501.09;5110376;28;20081;-85
2023/06/25 03:58:26;;;;;;;3.92;2.60;;;;;;;22.16;67.92;99478.84;5110898;28;20035;-84
2023/06/25 04:00:51;;;;;;;3.38;2.42;;;;;;;22.14;68.20;99457.47;5108013;28;20054;-84
2023/06/25 04:03:17;;;;;;;4.25;2.50;;;;;;;22.40;66.95;99478.19;5100307;28;20489;-86
2023/06/25 04:05:45;;;;;;;3.50;2.60;;;;;;;22.46;66.58;99472.41;5071557;28;20087;-86
2023/06/25 04:08:11;;;;;;;4.30;2.50;;;;;;;22.80;66.21;99507.72;5071468;28;20028;-86
2023/06/25 04:10:38;;;;;;;5.35;2.05;;;;;;;22.83;66.30;99494.97;5091893;28;20031;-86
2023/06/25 04:13:04;;;;;;;4.78;2.25;;;;;;;22.99;66.60;99494.75;5108696;28;20505;-87
2023/06/25 04:15:29;;;;;;;4.57;2.53;;;;;;;22.96;66.81;99473.44;5110435;28;20035;-87
2023/06/25 04:17:55;;;;;;;3.25;2.72;;;;;;;23.31;66.49;99520.38;5110544;28;20130;-88
2023/06/25 04:20:20;;;;;;;2.58;1.52;;;;;;;23.01;66.62;99471.28;5110193;28;20036;-86
2023/06/25 04:22:46;;;;;;;6.05;3.03;;;;;;;23.00;66.94;99453.44;5091518;28;20417;-86
2023/06/25 04:25:11;;;;;;;7.85;3.05;;;;;;;23.28;67.88;99509.81;5107706;28;20030;-88
2023/06/25 04:27:38;;;;;;;4.30;2.63;;;;;;;23.23;68.36;99464.41;5090294;28;20036;-86
2023/06/25 04:30:04;;;;;;;7.97;4.45;;;;;;;23.27;68.84;99465.91;5090109;28;20024;-88
2023/06/25 04:32:29;;;;;;;4.93;3.13;;;;;;;23.81;67.62;99518.56;5090075;28;20035;-87
2023/06/25 04:34:55;;;;;;;3.33;2.50;;;;;;;23.67;67.43;99470.28;5094826;28;20429;-85
2023/06/25 04:37:20;;;;;;;4.18;2.63;;;;;;;23.48;67.03;99468.91;5076933;28;20066;-86
2023/06/25 04:39:46;;;;;;;4.75;3.13;;;;;;;23.60;66.19;99476.09;5109507;28;20027;-86
2023/06/25 04:42:11;;;;;;;5.20;2.72;;;;;;;23.96;64.67;99500.47;5110131;28;20032;-85
2023/06/25 04:44:37;;;;;;;3.75;2.20;;;;;;;24.05;64.94;99475.56;5108656;28;20055;-85
2023/06/25 04:47:02;;;;;;;2.42;1.77;;;;;;;23.69;65.07;99450.31;5090370;28;20068;-85
2023/06/25 04:49:28;;;;;;;6.15;2.28;;;;;;;23.92;64.42;99445.09;5090527;28;20061;-85
2023/06/25 04:51:53;;;;;;;3.88;2.60;;;;;;;24.28;63.74;99487.28;5090229;28;20872;-85
2023/06/25 04:54:19;;;;;;;5.78;3.05;;;;;;;24.26;62.93;99488.38;5104951;28;20073;-84
2023/06/25 04:56:44;;;;;;;4.05;2.30;;;;;;;24.54;63.94;99543.75;5097657;28;20032;-83
2023/06/25 04:59:10;;;;;;;6.40;3.67;;;;;;;24.12;63.24;99519.91;5108890;28;20110;-83
2023/06/25 05:01:35;;;;;;;6.32;3.03;;;;;;;23.95;63.16;99547.22;5092506;28;20114;-85
2023/06/25 05:04:01;;;;;;;4.85;3.33;;;;;;;23.84;63.16;99514.81;5094965;28;20039;-84
2023/06/25 05:06:26;;;;;;;6.97;4.25;;;;;;;24.01;62.77;99527.94;5091530;28;20031;-84
2023/06/25 05:08:52;;;;;;;5.85;2.97;;;;;;;24.06;63.35;99525.75;5090580;28;20078;-85
2023/06/25 05:11:17;;;;;;;3.65;2.50;;;;;;;23.95;64.10;99504.97;5098736;28;20066;-85
2023/06/25 05:13:42;;;;;;;5.28;3.17;;;;;;;24.33;63.95;99539.97;5071679;28;20036;-84
2023/06/25 05:16:08;;;;;;;4.50;2.55;;;;;;;23.88;64.81;99475.91;5089851;28;20056;-85
2023/06/25 05:18:34;;;;;;;6.65;4.10;;;;;;;24.33;64.34;99508.50;5073188;28;20089;-85
2023/06/25 05:20:59;;;;;;;8.55;3.65;;;;;;;24.55;63.59;99491.56;5092607;28;20127;-85
2023/06/25 05:23:25;;;;;;;7.63;3.90;;;;;;;24.72;62.26;99489.44;5090179;28;20028;-86
2023/06/25 05:25:51;;;;;;;6.88;4.13;;;;;;;24.86;62.33;99505.41;5113728;28;20468;-86
2023/06/25 05:28:17;;;;;;;7.38;3.40;;;;;;;24.87;62.69;99517.06;5094167;28;20176;-87
2023/06/25 05:30:42;;;;;;;5.70;3.53;;;;;;;24.63;62.95;99502.63;5113112;27;20027;-85
2023/06/25 05:33:08;;;;;;;6.43;4.57;;;;;;;24.43;64.59;99504.13;5120436;27;20023;-87
2023/06/25 05:35:33;;;;;;;7.57;4.68;;;;;;;24.75;63.47;99524.28;5119972;27;20031;-86
2023/06/25 05:37:59;;;;;;;6.53;3.58;;;;;;;24.72;63.78;99508.31;5113406;27;20020;-85
2023/06/25 05:40:26;;;;;;;6.85;4.55;;;;;;;25.07;64.81;99561.38;5112585;28;20035;-86
2023/06/25 05:42:54;;;;;;;6.15;3.72;;;;;;;24.70;63.63;99500.34;5093681;28;20048;-85
2023/06/25 05:45:20;;;;;;;7.15;3.45;;;;;;;24.83;64.15;99493.00;5075135;28;20662;-86
2023/06/25 05:47:45;;;;;;;8.18;4.82;;;;;;;25.03;62.96;99504.09;5094946;28;20485;-87
2023/06/25 05:50:11;;;;;;;7.53;4.35;;;;;;;25.26;63.46;99477.16;5093944;28;20036;-87
2023/06/25 05:53:15;;;;;;;8.05;4.78;;;;;;;25.31;61.97;99465.00;5111304;28;20047;-88
2023/06/25 05:55:40;;;;;;;7.28;4.45;;;;;;;25.78;59.92;99526.09;5113365;28;20493;-85
2023/06/25 05:58:06;;;;;;;7.35;3.90;;;;;;;25.73;60.43;99500.34;5095050;28;20100;-86
2023/06/25 06:00:31;;;;;;;8.77;3.58;;;;;;;25.84;59.86;99553.50;5094663;28;20027;-86
2023/06/25 06:02:57;;;;;;;6.45;4.10;;;;;;;25.95;60.59;99530.13;5082663;28;20078;-88
2023/06/25 06:05:24;;;;;;;5.45;3.35;;;;;;;25.97;59.82;99549.81;5113127;28;20031;-86
2023/06/25 06:07:49;;;;;;;5.90;3.35;;;;;;;26.00;60.52;99512.59;5113648;28;20038;-85
2023/06/25 06:10:16;;;;;;;6.57;3.40;;;;;;;26.62;58.43;99532.66;5112583;28;20032;-85
2023/06/25 06:12:42;;;;;;;6.88;4.00;;;;;;;26.75;57.64;99475.69;5112759;28;20035;-87
2023/06/25 06:15:08;;;;;;;7.68;4.60;;;;;;;27.32;56.96;99529.47;5094634;28;20432;-84
2023/06/25 06:17:33;;;;;;;4.55;3.10;;;;;;;27.27;55.61;99507.34;5112682;28;20030;-83
2023/06/25 06:20:00;;;;;;;5.60;3.38;;;;;;;27.15;55.95;99487.63;5094281;28;20027;-84
2023/06/25 06:22:25;;;;;;;5.50;3.33;;;;;;;26.94;56.62;99498.44;5113017;28;20088;-85
2023/06/25 06:24:51;;;;;;;4.80;3.20;;;;;;;27.18;56.99;99454.84;5112818;28;20036;-86
2023/06/25 06:27:16;;;;;;;4.70;3.38;;;;;;;27.33;54.57;99539.34;5112623;28;20023;-90
2023/06/25 06:29:42;;;;;;;5.28;3.65;;;;;;;27.87;55.49;99548.97;5112643;28;20031;-87
2023/06/25 06:32:08;;;;;;;4.90;2.30;;;;;;;27.79;54.78;99553.34;5090946;28;20028;-87
2023/06/25 06:34:34;;;;;;;5.15;3.30;;;;;;;27.80;54.49;99501.72;5112004;28;20027;-87
2023/06/25 06:36:59;;;;;;;6.07;2.75;;;;;;;27.50;54.74;99467.44;5084315;28;20032;-88
2023/06/25 06:39:25;;;;;;;7.43;2.25;;;;;;;28.13;55.00;99509.66;5110822;28;20088;-89
2023/06/25 06:41:50;;;;;;;4.82;2.78;;;;;;;28.74;53.34;99504.00;5107922;28;20081;-89
2023/06/25 06:44:18;;;;;;;8.68;3.47;;;;;;;29.31;51.93;99552.09;5112104;28;20047;-88
2023/06/25 06:46:44;;;;;;;9.23;4.32;;;;;;;29.32;49.92;99490.47;5111717;28;20413;-89
2023/06/25 06:49:10;;;;;;;4.43;2.92;;;;;;;29.44;51.58;99490.16;5105454;28;20036;-89
2023/06/25 06:51:37;;;;;;;5.45;3.70;;;;;;;29.28;49.74;99496.19;5101636;28;20114;-89
2023/06/25 06:54:07;;;;;;;6.25;3.38;;;;;;;29.71;49.73;99455.00;5110684;28;20061;-89
2023/06/25 06:56:33;;;;;;;5.30;2.47;;;;;;;30.00;48.39;99466.56;5073891;28;20038;-90
2023/06/25 06:58:59;;;;;;;3.00;1.70;;;;;;;29.82;48.99;99485.53;5090464;28;20031;-88
2023/06/25 07:01:25;;;;;;;3.03;1.75;;;;;;;29.42;49.32;99473.13;5111110;28;20119;-89
2023/06/25 07:03:51;;;;;;;3.80;1.90;;;;;;;29.62;49.85;99503.78;5093692;28;20043;-88
2023/06/25 07:06:16;;;;;;;2.92;1.23;;;;;;;29.52;48.50;99459.53;5111918;28;20431;-89
2023/06/25 07:08:42;;;;;;;3.42;1.92;;;;;;;29.46;48.82;99439.25;5109750;27;20114;-90
2023/06/25 07:11:07;;;;;;;2.08;1.35;;;;;;;29.32;49.89;99441.59;5121805;27;20031;-90
2023/06/25 07:13:33;;;;;;;2.90;1.63;;;;;;;30.02;49.91;99457.41;5110561;27;20030;-88
2023/06/25 07:15:58;;;;;;;3.90;1.98;;;;;;;30.20;47.89;99463.69;5091328;27;20038;-90
2023/06/25 07:18:24;;;;;;;4.45;1.98;;;;;;;29.99;48.36;99469.44;5124574;27;20031;-88
2023/06/25 07:20:50;;;;;;;2.17;1.30;;;;;;;30.07;45.37;99442.31;5093196;27;20035;-88
2023/06/25 07:23:16;;;;;;;2.90;1.50;;;;;;;29.68;48.13;99414.53;5101604;28;20096;-90
2023/06/25 07:25:42;;;;;;;4.53;1.58;;;;;;;30.24;47.40;99464.22;5094374;28;20107;-89
2023/06/25 07:28:09;;;;;;;3.08;1.98;;;;;;;29.75;46.84;99430.06;5091384;28;20020;-87
2023/06/25 07:30:37;;;;;;;4.50;2.53;;;;;;;30.02;48.36;99431.06;5111405;28;20489;-89
2023/06/25 07:33:03;;;;;;;3.88;1.90;;;;;;;29.71;46.93;99406.91;5087141;28;20036;-90
2023/06/25 07:35:28;;;;;;;1.42;0.93;;;;;;;30.28;48.82;99447.44;5111645;28;20567;-90
2023/06/25 07:37:54;;;;;;;4.90;2.00;;;;;;;30.18;45.08;99420.34;5075747;28;20080;-89
2023/06/25 07:40:20;;;;;;;4.13;2.72;;;;;;;30.66;45.57;99429.09;5093286;28;20055;-88
2023/06/25 07:42:45;;;;;;;2.63;1.52;;;;;;;30.65;43.35;99427.38;5110798;28;20050;-89
2023/06/25 07:45:11;;;;;;;3.65;1.95;;;;;;;31.01;44.83;99472.75;5093414;28;20042;-90
2023/06/25 07:47:38;;;;;;;6.50;3.33;;;;;;;31.03;43.24;99391.72;5111612;28;20032;-91
2023/06/25 07:50:04;;;;;;;6.05;3.20;;;;;;;31.87;41.46;99421.84;5111103;28;20028;-90
2023/06/25 07:52:31;;;;;;;4.82;2.65;;;;;;;31.32;40.39;99401.41;5111687;28;20474;-89
2023/06/25 07:54:56;;;;;;;3.22;1.70;;;;;;;32.02;43.95;99431.09;5111355;28;20035;-90
2023/06/25 07:57:22;;;;;;;3.20;2.25;;;;;;;32.24;42.96;99398.75;5106315;27;20086;-90
2023/06/25 07:59:48;;;;;;;3.40;2.30;;;;;;;32.08;42.90;99446.78;5095897;28;20030;-89
2023/06/25 08:02:13;;;;;;;2.78;1.95;;;;;;;31.33;41.47;99381.31;5096351;28;20558;-91
2023/06/25 08:04:39;;;;;;;4.30;2.70;;;;;;;32.37;43.38;99406.44;5090034;28;20035;-91
2023/06/25 08:07:04;;;;;;;4.53;2.53;;;;;;;32.12;43.26;99376.41;5055867;28;20478;-90
2023/06/25 08:09:31;;;;;;;4.28;2.28;;;;;;;32.44;41.80;99397.38;5102989;28;20135;-89
2023/06/25 08:11:57;;;;;;;2.90;1.77;;;;;;;33.12;39.92;99397.09;5075435;28;20036;-91
2023/06/25 08:14:23;;;;;;;2.30;1.58;;;;;;;32.80;39.05;99388.00;5101086;28;20026;-92
2023/06/25 08:16:48;;;;;;;4.00;2.28;;;;;;;32.43;40.48;99394.84;5124845;28;20031;-89
2023/06/25 08:19:14;;;;;;;4.25;2.28;;;;;;;32.88;37.82;99390.69;5104418;28;20035;-89
2023/06/25 08:21:40;;;;;;;3.08;2.03;;;;;;;32.92;39.94;99405.72;5104994;28;20084;-89
2023/06/25 08:24:07;;;;;;;3.53;2.03;;;;;;;32.83;38.53;99385.75;5111644;28;20027;-90
2023/06/25 08:26:34;;;;;;;3.33;1.88;;;;;;;32.74;36.79;99331.34;5093273;28;20107;-90
2023/06/25 08:29:00;;;;;;;4.22;2.67;;;;;;;33.52;36.65;99397.97;5091237;28;20031;-86
2023/06/25 08:31:26;;;;;;;4.07;1.75;;;;;;;32.87;36.51;99375.31;5090808;28;20031;-87
2023/06/25 08:33:52;;;;;;;6.68;3.03;;;;;;;33.26;38.44;99365.47;5098946;28;20028;-87
2023/06/25 08:36:18;;;;;;;4.25;2.47;;;;;;;33.94;35.76;99366.66;5111434;28;20027;-86
2023/06/25 08:38:44;;;;;;;4.40;2.25;;;;;;;33.85;38.14;99354.06;5111108;28;20027;-88
2023/06/25 08:41:10;;;;;;;4.13;2.72;;;;;;;34.30;38.58;99401.63;5104724;28;20547;-90
2023/06/25 08:43:37;;;;;;;3.03;2.00;;;;;;;34.11;39.37;99339.16;5064766;28;20115;-89
2023/06/25 08:46:02;;;;;;;4.25;2.38;;;;;;;34.62;37.94;99410.59;5084230;28;20305;-87
2023/06/25 08:48:31;;;;;;;4.70;2.88;;;;;;;33.68;35.03;99347.84;5087073;28;20176;-85
2023/06/25 08:51:02;;;;;;;2.65;2.08;;;;;;;34.11;34.71;99359.16;5081103;28;20040;-86
2023/06/25 08:53:28;;;;;;;4.43;2.40;;;;;;;34.10;37.77;99342.94;5090845;28;20024;-84
2023/06/25 08:55:58;;;;;;;5.13;2.40;;;;;;;34.36;33.66;99345.31;5090603;28;20032;-84
2023/06/25 08:58:26;;;;;;;4.35;2.38;;;;;;;34.58;35.90;99332.56;5082366;28;20414;-83
2023/06/25 09:00:52;;;;;;;5.35;2.25;;;;;;;35.07;33.86;99342.16;5076073;28;20064;-87
2023/06/25 09:03:18;;;;;;;3.63;2.13;;;;;;;34.40;33.77;99330.19;5081881;28;20044;-85
2023/06/25 09:05:55;;;;;;;9.50;2.95;;;;;;;33.84;33.96;99328.59;5085423;28;20081;-85
2023/06/25 09:08:26;;;;;;;3.80;2.67;;;;;;;34.02;34.04;99336.50;5081989;28;20031;-84
2023/06/25 09:10:56;;;;;;;3.83;2.72;;;;;;;33.53;35.06;99331.34;5079272;28;20055;-86
2023/06/25 09:13:23;;;;;;;10.95;2.83;;;;;;;34.31;36.22;99375.97;5080100;28;20494;-87
2023/06/25 09:15:50;;;;;;;3.55;2.30;;;;;;;33.63;36.59;99321.03;5094491;28;20028;-86
2023/06/25 09:18:21;;;;;;;4.55;2.50;;;;;;;33.77;33.30;99374.13;5093998;28;20039;-86
2023/06/25 09:20:48;;;;;;;4.07;1.98;;;;;;;33.17;37.10;99334.59;5082089;28;20024;-84
2023/06/25 09:23:21;;;;;;;6.10;2.92;;;;;;;33.27;37.66;99334.41;5090254;28;20039;-86
2023/06/25 09:25:48;;;;;;;5.10;2.75;;;;;;;33.71;36.99;99317.38;5091609;28;20118;-86
2023/06/25 09:28:13;;;;;;;5.78;2.88;;;;;;;33.90;35.56;99316.91;5086422;28;20039;-85
2023/06/25 09:30:40;;;;;;;18.25;3.75;;;;;;;33.67;34.21;99297.75;5082272;28;20025;-86
2023/06/25 09:33:05;;;;;;;4.82;3.28;;;;;;;33.65;34.21;99304.44;5076652;28;20028;-85
2023/06/25 09:35:33;;;;;;;6.25;2.78;;;;;;;34.00;33.19;99313.94;5082072;28;20032;-85
2023/06/25 09:37:59;;;;;;;3.80;2.40;;;;;;;34.13;34.77;99317.94;5092628;28;20032;-86
2023/06/25 09:40:24;;;;;;;9.90;3.60;;;;;;;34.38;37.89;99316.69;5091816;28;20097;-84
2023/06/25 09:42:53;;;;;;;6.00;3.25;;;;;;;34.55;36.50;99317.38;5081249;28;20490;-89
2023/06/25 09:45:20;;;;;;;69.05;37.17;;;;;;;34.83;34.61;99316.75;5109394;28;20028;-85
2023/06/25 09:47:47;;;;;;;5.88;4.03;;;;;;;34.81;32.88;99275.00;5113292;28;20020;-88
2023/06/25 09:50:24;;;;;;;5.05;2.25;;;;;;;35.02;32.84;99323.53;5086597;28;20042;-85
2023/06/25 09:52:58;;;;;;;4.95;2.65;;;;;;;34.23;34.25;99241.88;5103276;27;20067;-88
2023/06/25 09:55:26;;;;;;;2.67;1.95;;;;;;;34.78;33.57;99257.06;5100320;27;20036;-86
2023/06/25 09:57:53;;;;;;;5.22;2.45;;;;;;;34.53;33.01;99270.16;5097279;28;20035;-86
2023/06/25 10:00:20;;;;;;;5.35;3.33;;;;;;;34.87;32.00;99314.50;5101124;28;20128;-86
2023/06/25 10:02:46;;;;;;;4.65;2.55;;;;;;;34.40;34.04;99259.00;5099432;28;20169;-89
2023/06/25 10:05:11;;;;;;;4.80;2.78;;;;;;;35.13;32.83;99243.56;5100162;28;20542;-86
2023/06/25 10:07:39;;;;;;;5.60;3.15;;;;;;;35.21;31.45;99264.53;5100065;28;20093;-86
2023/06/25 10:10:06;;;;;;;8.00;5.20;;;;;;;34.48;31.55;99234.31;5106127;28;20031;-86
2023/06/25 10:12:36;;;;;;;4.25;2.70;;;;;;;34.70;31.38;99246.19;5107420;28;20027;-86
2023/06/25 10:15:04;;;;;;;3.75;2.22;;;;;;;34.63;31.46;99208.78;5103243;28;20100;-87
2023/06/25 10:17:30;;;;;;;7.85;2.08;;;;;;;34.55;32.65;99221.53;5089243;28;20046;-87
2023/06/25 10:19:57;;;;;;;6.50;4.32;;;;;;;34.43;31.88;99209.38;5099778;28;20036;-85
2023/06/25 10:22:24;;;;;;;5.57;2.90;;;;;;;34.14;32.75;99246.63;5095755;28;20039;-87
2023/06/25 10:24:54;;;;;;;4.28;2.63;;;;;;;34.91;33.14;99258.25;5101028;27;20040;-86
2023/06/25 10:27:28;;;;;;;4.20;2.40;;;;;;;34.47;34.47;99249.03;5107679;28;20550;-86
2023/06/25 10:29:55;;;;;;;3.15;2.25;;;;;;;34.83;32.47;99209.06;5101449;28;20020;-85
2023/06/25 10:32:27;;;;;;;4.75;2.65;;;;;;;34.41;32.16;99217.75;5093029;28;20051;-85
2023/06/25 10:34:59;;;;;;;3.50;2.35;;;;;;;34.32;32.78;99205.22;5097516;28;20024;-85
2023/06/25 10:37:32;;;;;;;4.40;2.50;;;;;;;34.97;36.98;99239.19;5097456;28;20538;-85
2023/06/25 10:40:01;;;;;;;5.05;2.92;;;;;;;35.44;34.92;99244.38;5095591;28;20036;-87
2023/06/25 10:42:30;;;;;;;4.60;2.88;;;;;;;34.17;33.89;99243.50;5099259;28;20027;-87
2023/06/25 10:44:55;;;;;;;4.15;3.13;;;;;;;34.22;34.55;99185.47;5068059;28;20060;-89
2023/06/25 10:47:21;;;;;;;3.45;2.42;;;;;;;34.03;34.46;99228.78;5076485;28;20024;-87
2023/06/25 10:49:46;;;;;;;3.88;2.22;;;;;;;34.71;33.29;99209.53;5073585;28;20031;-87
2023/06/25 10:52:12;;;;;;;5.25;2.70;;;;;;;34.86;33.22;99176.66;5077431;28;20056;-87
2023/06/25 10:54:37;;;;;;;4.57;2.60;;;;;;;34.72;32.74;99183.84;5072796;28;20028;-86
2023/06/25 10:57:07;;;;;;;4.65;2.38;;;;;;;35.06;31.58;99214.41;5079772;28;20387;-88
2023/06/25 10:59:33;;;;;;;5.30;2.53;;;;;;;35.01;32.42;99239.63;5074268;28;20093;-88
2023/06/25 11:02:17;;;;;;;5.18;2.55;;;;;;;34.86;33.58;99234.19;5078088;28;20040;-86
2023/06/25 11:04:53;;;;;;;4.22;2.75;;;;;;;34.68;32.62;99212.66;5074816;28;20131;-86
2023/06/25 11:07:19;;;;;;;5.43;3.22;;;;;;;34.51;33.87;99190.13;5072155;28;20056;-87
2023/06/25 11:09:50;;;;;;;6.03;2.67;;;;;;;34.74;33.80;99187.25;5075279;28;20039;-87
2023/06/25 11:12:17;;;;;;;5.07;2.78;;;;;;;34.37;31.78;99149.91;5071970;28;20115;-87
2023/06/25 11:14:44;;;;;;;4.38;2.97;;;;;;;34.34;32.64;99180.38;5071865;28;20029;-91
2023/06/25 11:17:09;;;;;;;5.03;3.03;;;;;;;34.22;31.98;99180.84;5070595;28;20025;-87
2023/06/25 11:19:35;;;;;;;5.80;2.53;;;;;;;34.09;32.93;99208.00;5077190;28;20414;-86
2023/06/25 11:22:04;;;;;;;6.88;2.50;;;;;;;34.04;33.15;99178.47;5071413;28;20418;-87
2023/06/25 11:24:36;;;;;;;4.20;2.47;;;;;;;33.82;33.99;99182.13;5077573;28;20414;-86
2023/06/25 11:27:02;;;;;;;4.43;2.47;;;;;;;33.32;34.52;99147.00;5082267;28;20058;-86
2023/06/25 11:29:39;;;;;;;2.90;2.17;;;;;;;33.40;34.36;99159.75;5080850;28;20033;-86
2023/06/25 11:32:07;;;;;;;4.57;2.50;;;;;;;32.73;35.74;99160.34;5076128;28;20028;-87